createdAt,value
2019-02-20T00:01:26.843Z,26.27
2019-02-20T00:03:55.827Z,24.40
2019-02-20T00:06:24.701Z,23.63
2019-02-20T00:08:53.669Z,14.27
2019-02-20T00:11:22.722Z,22.17
2019-02-20T00:13:51.695Z,29.77
2019-02-20T00:16:20.751Z,26.53
2019-02-20T00:18:49.804Z,35.10
2019-02-20T00:21:18.883Z,27.63
2019-02-20T00:23:47.791Z,28.80
2019-02-20T00:26:16.721Z,26.37
2019-02-20T00:28:45.786Z,27.00
2019-02-20T00:31:14.922Z,27.57
2019-02-20T00:33:43.896Z,31.47
2019-02-20T00:36:12.878Z,31.27
2019-02-20T00:38:41.884Z,32.53
2019-02-20T00:41:10.932Z,38.97
2019-02-20T00:43:41.583Z,27.60
2019-02-20T00:46:18.663Z,26.07
2019-02-20T00:48:52.633Z,25.43
2019-02-20T00:51:35.142Z,28.27
2019-02-20T00:54:05.487Z,19.47
2019-02-20T00:56:34.545Z,41.60
2019-02-20T00:59:03.590Z,27.30
2019-02-20T01:01:32.643Z,28.57
2019-02-20T01:04:02.166Z,25.60
2019-02-20T01:06:31.129Z,27.20
2019-02-20T01:09:00.193Z,32.87
2019-02-20T01:11:29.259Z,23.93
2019-02-20T01:13:58.381Z,31.70
2019-02-20T01:16:27.517Z,29.63
2019-02-20T01:18:56.483Z,32.60
2019-02-20T01:21:25.555Z,28.80
2019-02-20T01:23:54.623Z,33.00
2019-02-20T01:26:23.666Z,22.83
2019-02-20T01:28:52.652Z,25.60
2019-02-20T01:31:21.630Z,23.97
2019-02-20T01:33:50.711Z,28.87
2019-02-20T01:36:19.761Z,30.97
2019-02-20T01:38:48.819Z,31.67
2019-02-20T01:41:17.863Z,40.17
2019-02-20T01:43:46.978Z,29.50
2019-02-20T01:46:16.042Z,28.60
2019-02-20T01:48:45.124Z,30.03
2019-02-20T01:51:14.111Z,35.43
2019-02-20T01:53:43.186Z,31.63
2019-02-20T01:56:12.267Z,23.07
2019-02-20T01:58:41.271Z,29.53
2019-02-20T02:01:10.385Z,33.60
2019-02-20T02:03:39.284Z,24.07
2019-02-20T02:06:08.421Z,23.13
2019-02-20T02:08:37.442Z,28.43
2019-02-20T02:11:06.504Z,36.40
2019-02-20T02:13:35.519Z,27.20
2019-02-20T02:16:04.663Z,34.93
2019-02-20T02:18:33.756Z,27.13
2019-02-20T02:21:02.771Z,35.87
2019-02-20T02:23:31.835Z,33.50
2019-02-20T02:26:00.837Z,35.47
2019-02-20T02:28:29.960Z,30.63
2019-02-20T02:30:58.959Z,26.87
2019-02-20T02:33:28.035Z,31.87
2019-02-20T02:35:57.116Z,33.00
2019-02-20T02:38:26.073Z,28.87
2019-02-20T02:40:55.115Z,33.70
2019-02-20T02:43:24.098Z,37.30
2019-02-20T02:45:53.056Z,31.80
2019-02-20T02:48:22.107Z,28.03
2019-02-20T02:50:51.276Z,22.40
2019-02-20T02:53:30.014Z,22.60
2019-02-20T02:55:51.204Z,24.07
2019-02-20T02:58:20.275Z,31.60
2019-02-20T03:00:49.265Z,36.80
2019-02-20T03:03:18.222Z,29.80
2019-02-20T03:05:47.297Z,31.90
2019-02-20T03:08:16.245Z,33.40
2019-02-20T03:10:45.285Z,35.63
2019-02-20T03:13:14.319Z,26.33
2019-02-20T03:15:43.367Z,22.17
2019-02-20T03:18:12.458Z,29.60
2019-02-20T03:20:41.496Z,26.30
2019-02-20T03:23:10.487Z,38.83
2019-02-20T03:25:39.551Z,31.47
2019-02-20T03:28:08.663Z,30.23
2019-02-20T03:30:37.601Z,41.93
2019-02-20T03:33:06.650Z,39.70
2019-02-20T03:35:35.719Z,41.73
2019-02-20T03:38:04.736Z,37.23
2019-02-20T03:40:33.812Z,39.73
2019-02-20T03:43:02.831Z,19.17
2019-02-20T03:45:31.760Z,34.23
2019-02-20T03:48:00.875Z,31.13
2019-02-20T03:50:29.896Z,39.60
2019-02-20T03:52:58.890Z,31.13
2019-02-20T03:55:28.006Z,34.63
2019-02-20T03:57:57.038Z,30.40
2019-02-20T04:00:25.999Z,36.27
2019-02-20T04:02:55.084Z,36.27
2019-02-20T04:05:24.054Z,24.53
2019-02-20T04:07:53.109Z,30.03
2019-02-20T04:10:22.103Z,31.27
2019-02-20T04:12:51.003Z,23.20
2019-02-20T04:15:20.057Z,27.53
2019-02-20T04:17:49.155Z,26.30
2019-02-20T04:20:18.203Z,31.10
2019-02-20T04:22:47.205Z,25.90
2019-02-20T04:25:16.268Z,28.60
2019-02-20T04:27:45.250Z,37.47
2019-02-20T04:30:14.495Z,34.00
2019-02-20T04:32:43.595Z,23.27
2019-02-20T04:35:12.603Z,24.47
2019-02-20T04:37:41.683Z,30.77
2019-02-20T04:40:10.777Z,28.57
2019-02-20T04:42:39.755Z,31.87
2019-02-20T04:45:08.866Z,24.70
2019-02-20T04:47:37.978Z,23.63
2019-02-20T04:50:08.119Z,24.60
2019-02-20T04:52:37.097Z,25.80
2019-02-20T04:55:06.275Z,21.47
2019-02-20T04:57:35.415Z,20.40
2019-02-20T05:00:05.302Z,20.13
2019-02-20T05:02:34.602Z,16.83
2019-02-20T05:05:03.686Z,26.20
2019-02-20T05:07:32.733Z,26.90
2019-02-20T05:10:01.781Z,28.53
2019-02-20T05:12:30.784Z,25.57
2019-02-20T05:14:59.775Z,25.07
2019-02-20T05:17:28.830Z,27.17
2019-02-20T05:19:57.826Z,32.57
2019-02-20T05:22:26.949Z,31.70
2019-02-20T05:24:56.058Z,29.77
2019-02-20T05:27:25.120Z,39.17
2019-02-20T05:29:54.209Z,28.97
2019-02-20T05:32:23.275Z,27.37
2019-02-20T05:34:52.375Z,28.57
2019-02-20T05:37:21.385Z,28.80
2019-02-20T05:39:50.388Z,30.07
2019-02-20T05:42:19.375Z,26.07
2019-02-20T05:44:48.457Z,25.03
2019-02-20T05:47:17.517Z,24.37
2019-02-20T05:49:46.499Z,37.23
2019-02-20T05:52:15.552Z,30.23
2019-02-20T05:54:44.531Z,33.10
2019-02-20T05:57:13.657Z,38.27
2019-02-20T05:59:42.748Z,33.97
2019-02-20T06:02:11.736Z,30.83
2019-02-20T06:04:40.900Z,26.10
2019-02-20T06:07:09.974Z,20.30
2019-02-20T06:09:38.961Z,26.00
2019-02-20T06:12:08.139Z,31.40
2019-02-20T06:14:37.163Z,23.20
2019-02-20T06:17:06.266Z,21.40
2019-02-20T06:19:35.283Z,24.60
2019-02-20T06:22:04.297Z,21.87
2019-02-20T06:24:33.371Z,19.97
2019-02-20T06:27:02.439Z,24.50
2019-02-20T06:29:31.511Z,18.87
2019-02-20T06:32:00.653Z,27.73
2019-02-20T06:34:29.611Z,23.77
2019-02-20T06:36:58.647Z,24.17
2019-02-20T06:39:27.656Z,17.10
2019-02-20T06:41:56.748Z,21.80
2019-02-20T06:44:25.827Z,27.07
2019-02-20T06:46:54.867Z,20.40
2019-02-20T06:49:23.807Z,22.23
2019-02-20T06:51:52.859Z,20.37
2019-02-20T06:54:21.960Z,16.93
2019-02-20T06:56:50.975Z,18.77
2019-02-20T06:59:19.972Z,16.43
2019-02-20T07:01:49.007Z,16.23
2019-02-20T07:04:17.927Z,18.97
2019-02-20T07:07:09.433Z,19.63
2019-02-20T07:09:51.247Z,21.10
2019-02-20T07:13:00.469Z,21.10
2019-02-20T07:16:03.539Z,20.70
2019-02-20T07:18:53.763Z,22.93
2019-02-20T07:21:49.033Z,17.27
2019-02-20T07:24:32.700Z,20.57
2019-02-20T07:27:28.235Z,22.90
2019-02-20T07:30:05.140Z,19.83
2019-02-20T07:32:34.302Z,24.40
2019-02-20T07:35:03.970Z,25.77
2019-02-20T07:37:33.035Z,15.03
2019-02-20T07:40:02.124Z,12.30
2019-02-20T07:42:31.036Z,12.17
2019-02-20T07:45:00.097Z,22.33
2019-02-20T07:47:29.167Z,17.80
2019-02-20T07:49:58.170Z,9.90
2019-02-20T07:52:27.164Z,15.53
2019-02-20T07:54:56.165Z,15.53
2019-02-20T07:57:25.172Z,15.03
2019-02-20T07:59:54.261Z,19.03
2019-02-20T08:02:23.269Z,16.00
2019-02-20T08:04:52.372Z,22.83
2019-02-20T08:07:21.446Z,18.10
2019-02-20T08:09:51.054Z,15.90
2019-02-20T08:12:20.198Z,18.43
2019-02-20T08:14:49.552Z,17.33
2019-02-20T08:17:18.608Z,15.83
2019-02-20T08:19:47.966Z,19.30
2019-02-20T08:22:17.042Z,16.60
2019-02-20T08:24:46.005Z,20.53
2019-02-20T08:27:15.099Z,29.10
2019-02-20T08:29:44.280Z,20.73
2019-02-20T08:32:13.344Z,18.27
2019-02-20T08:34:42.319Z,21.47
2019-02-20T08:37:11.383Z,15.43
2019-02-20T08:39:40.447Z,18.70
2019-02-20T08:42:09.499Z,18.87
2019-02-20T08:44:38.479Z,16.23
2019-02-20T08:47:07.599Z,18.93
2019-02-20T08:49:36.671Z,22.57
2019-02-20T08:52:05.839Z,18.17
2019-02-20T08:54:34.855Z,17.37
2019-02-20T08:57:04.019Z,13.20
2019-02-20T08:59:33.051Z,19.70
2019-02-20T09:02:02.108Z,16.20
2019-02-20T09:04:31.163Z,23.43
2019-02-20T09:07:00.996Z,15.27
2019-02-20T09:09:29.916Z,15.43
2019-02-20T09:11:59.307Z,15.90
2019-02-20T09:14:28.327Z,9.90
2019-02-20T09:16:57.391Z,16.70
2019-02-20T09:19:26.774Z,13.10
2019-02-20T09:21:55.758Z,14.87
2019-02-20T09:24:24.785Z,18.20
2019-02-20T09:26:53.757Z,15.47
2019-02-20T09:29:22.748Z,15.80
2019-02-20T09:31:51.910Z,15.93
2019-02-20T09:34:20.923Z,19.67
2019-02-20T09:36:49.895Z,18.47
2019-02-20T09:39:36.468Z,18.40
2019-02-20T09:42:07.870Z,14.67
2019-02-20T09:44:40.287Z,15.13
2019-02-20T09:47:09.927Z,16.57
2019-02-20T09:49:38.985Z,17.50
2019-02-20T09:52:08.055Z,17.80
2019-02-20T09:54:37.146Z,13.07
2019-02-20T09:57:06.164Z,16.73
2019-02-20T09:59:35.263Z,14.43
2019-02-20T10:02:04.450Z,16.70
2019-02-20T10:04:33.479Z,11.73
2019-02-20T10:07:02.584Z,14.20
2019-02-20T10:09:31.699Z,17.80
2019-02-20T10:12:00.714Z,14.43
2019-02-20T10:14:30.444Z,16.30
2019-02-20T10:16:59.629Z,16.73
2019-02-20T10:19:28.718Z,14.10
2019-02-20T10:21:57.771Z,13.07
2019-02-20T10:24:27.027Z,15.10
2019-02-20T10:27:00.661Z,12.57
2019-02-20T10:29:26.870Z,17.10
2019-02-20T10:31:55.903Z,14.17
2019-02-20T10:34:24.946Z,17.10
2019-02-20T10:36:54.003Z,11.43
2019-02-20T10:39:22.993Z,20.50
2019-02-20T10:41:52.477Z,18.47
2019-02-20T10:44:21.575Z,16.83
2019-02-20T10:46:50.584Z,17.70
2019-02-20T10:49:19.597Z,16.27
2019-02-20T10:51:49.391Z,14.80
2019-02-20T10:54:18.518Z,22.77
2019-02-20T10:56:47.613Z,15.63
2019-02-20T10:59:16.632Z,19.70
2019-02-20T11:01:45.834Z,14.47
2019-02-20T11:04:14.915Z,12.30
2019-02-20T11:06:44.041Z,17.37
2019-02-20T11:09:12.975Z,15.77
2019-02-20T11:11:41.937Z,19.53
2019-02-20T11:14:10.948Z,18.17
2019-02-20T11:16:40.037Z,19.20
2019-02-20T11:19:09.099Z,16.00
2019-02-20T11:21:38.689Z,18.93
2019-02-20T11:24:07.839Z,18.47
2019-02-20T11:26:43.525Z,12.93
2019-02-20T11:29:07.650Z,20.27
2019-02-20T11:31:36.743Z,19.10
2019-02-20T11:34:05.810Z,13.70
2019-02-20T11:36:34.861Z,16.03
2019-02-20T11:39:05.272Z,10.17
2019-02-20T11:41:34.284Z,16.50
2019-02-20T11:44:03.368Z,18.07
2019-02-20T11:46:32.459Z,12.50
2019-02-20T11:49:01.512Z,15.33
2019-02-20T11:51:31.063Z,17.17
2019-02-20T11:54:00.280Z,16.57
2019-02-20T11:56:29.347Z,15.50
2019-02-20T11:58:58.628Z,16.03
2019-02-20T12:01:27.860Z,13.63
2019-02-20T12:03:57.520Z,19.70
2019-02-20T12:06:26.793Z,16.27
2019-02-20T12:08:55.884Z,13.90
2019-02-20T12:11:25.280Z,15.53
2019-02-20T12:13:54.443Z,15.67
2019-02-20T12:16:23.691Z,17.67
2019-02-20T12:18:52.743Z,19.00
2019-02-20T12:21:22.125Z,14.20
2019-02-20T12:23:51.283Z,23.03
2019-02-20T12:26:20.684Z,13.63
2019-02-20T12:28:49.734Z,16.00
2019-02-20T12:31:19.140Z,13.23
2019-02-20T12:33:48.152Z,14.97
2019-02-20T12:36:17.207Z,14.43
2019-02-20T12:38:46.680Z,17.87
2019-02-20T12:41:15.693Z,16.27
2019-02-20T12:43:45.177Z,15.20
2019-02-20T12:46:14.348Z,16.57
2019-02-20T12:48:43.448Z,16.00
2019-02-20T12:51:12.837Z,18.00
2019-02-20T12:53:43.603Z,18.00
2019-02-20T12:56:12.815Z,12.63
2019-02-20T12:58:41.939Z,15.07
2019-02-20T13:01:11.431Z,17.43
2019-02-20T13:03:40.523Z,12.77
2019-02-20T13:06:09.985Z,13.87
2019-02-20T17:22:51.005Z,6.70
2019-02-20T17:25:20.437Z,7.17
2019-02-20T17:27:49.565Z,6.30
2019-02-20T17:30:18.759Z,8.00
2019-02-20T17:32:48.458Z,7.87
2019-02-20T17:35:17.551Z,13.43
2019-02-20T17:37:46.564Z,11.17
2019-02-20T17:40:16.844Z,6.17
2019-02-20T17:42:46.040Z,8.97
2019-02-20T17:45:15.159Z,10.07
2019-02-20T17:47:44.684Z,5.57
2019-02-20T17:50:14.867Z,8.70
2019-02-20T17:52:43.976Z,11.83
2019-02-20T17:55:13.073Z,8.97
2019-02-20T17:57:42.252Z,7.67
2019-02-20T18:00:12.311Z,8.07
2019-02-20T18:02:41.372Z,5.37
2019-02-20T18:05:10.545Z,12.83
2019-02-20T18:07:48.361Z,6.03
2019-02-20T18:10:10.708Z,7.67
2019-02-20T18:12:39.817Z,9.37
2019-02-20T18:15:08.993Z,10.47
2019-02-20T18:17:38.046Z,10.23
2019-02-20T18:20:07.484Z,7.63
2019-02-20T18:22:36.637Z,8.77
2019-02-20T18:25:05.756Z,8.10
2019-02-20T18:27:34.829Z,8.97
2019-02-20T18:30:05.152Z,12.03
2019-02-20T18:32:34.163Z,8.80
2019-02-20T18:35:03.372Z,10.37
2019-02-20T18:37:32.467Z,10.03
2019-02-20T18:40:01.519Z,9.03
2019-02-20T18:42:30.617Z,10.27
2019-02-20T18:44:59.713Z,9.13
2019-02-20T18:47:28.772Z,11.83
2019-02-20T18:49:57.840Z,10.77
2019-02-20T18:52:26.910Z,8.87
2019-02-20T18:55:05.353Z,8.70
2019-02-20T18:57:26.752Z,9.60
2019-02-20T18:59:55.770Z,8.90
2019-02-20T19:02:24.931Z,12.77
2019-02-20T19:04:53.965Z,5.60
2019-02-20T19:07:23.056Z,10.23
2019-02-20T19:09:52.181Z,11.17
2019-02-20T19:12:49.268Z,6.87
2019-02-20T19:15:50.535Z,11.17
2019-02-20T19:19:02.399Z,9.17
2019-02-20T19:21:36.936Z,12.70
2019-02-20T19:25:08.580Z,9.60
2019-02-20T19:28:04.438Z,9.80
2019-02-20T19:30:55.742Z,12.70
2019-02-20T19:34:07.981Z,8.60
2019-02-20T19:37:29.193Z,9.50
2019-02-20T19:40:08.215Z,11.67
2019-02-20T19:43:14.063Z,11.57
2019-02-20T19:46:18.364Z,11.27
2019-02-20T19:49:10.505Z,14.30
2019-02-20T19:52:03.619Z,12.87
2019-02-20T19:54:38.027Z,7.50
2019-02-20T19:58:15.395Z,6.30
2019-02-20T20:01:16.556Z,10.17
2019-02-20T20:04:03.095Z,7.50
2019-02-20T20:07:02.730Z,10.03
2019-02-20T20:09:41.712Z,9.70
2019-02-20T20:12:42.109Z,8.57
2019-02-20T20:15:47.023Z,9.57
2019-02-20T20:18:58.706Z,15.23
2019-02-20T20:22:17.321Z,9.27
2019-02-20T20:24:57.753Z,12.53
2019-02-20T20:28:13.947Z,9.73
2019-02-20T20:31:23.817Z,6.00
2019-02-20T20:34:34.820Z,6.50
2019-02-20T20:37:30.161Z,9.90
2019-02-20T20:40:32.812Z,10.43
2019-02-20T20:43:36.552Z,8.37
2019-02-20T20:46:30.836Z,7.53
2019-02-20T20:49:59.177Z,8.27
2019-02-20T20:53:03.142Z,9.03
2019-02-20T20:56:22.409Z,8.80
2019-02-20T20:59:17.946Z,8.13
2019-02-20T21:02:10.596Z,9.73
2019-02-20T21:05:26.403Z,9.13
2019-02-20T21:08:14.580Z,8.13
2019-02-20T21:11:20.408Z,13.57
2019-02-20T21:14:13.748Z,11.27
2019-02-20T21:17:51.456Z,8.60
2019-02-20T21:21:00.915Z,5.73
2019-02-20T21:23:52.417Z,9.67
2019-02-20T21:27:02.348Z,5.33
2019-02-20T21:30:32.420Z,9.57
2019-02-20T21:33:34.686Z,6.73
2019-02-20T21:36:48.095Z,10.87
2019-02-20T21:39:53.582Z,4.47
2019-02-20T21:42:53.705Z,5.57
2019-02-20T21:46:13.317Z,8.70
2019-02-20T21:49:15.431Z,9.50
2019-02-20T21:52:13.693Z,10.43
2019-02-20T21:55:17.676Z,8.27
2019-02-20T21:58:18.601Z,8.03
2019-02-20T22:01:13.887Z,9.13
2019-02-20T22:04:10.179Z,12.20
2019-02-20T22:07:50.788Z,9.17
2019-02-20T22:10:45.615Z,10.60
2019-02-20T22:13:48.954Z,11.50
2019-02-20T22:16:45.051Z,12.37
2019-02-20T22:19:39.140Z,13.87
2019-02-20T22:22:31.110Z,13.20
2019-02-20T22:25:43.354Z,17.43
2019-02-20T22:29:08.713Z,17.17
2019-02-20T22:32:17.467Z,18.67
2019-02-20T22:35:15.360Z,16.67
2019-02-20T22:38:15.027Z,11.60
2019-02-20T22:41:21.303Z,16.23
2019-02-20T22:44:43.384Z,11.47
2019-02-20T22:47:42.019Z,12.73
2019-02-20T22:50:43.679Z,19.50
2019-02-20T22:53:22.670Z,13.93
2019-02-20T22:56:22.929Z,12.27
2019-02-20T22:59:41.133Z,17.97
2019-02-20T23:02:26.214Z,18.03
2019-02-20T23:05:19.979Z,13.60
2019-02-20T23:08:02.707Z,16.47
2019-02-20T23:11:02.444Z,14.80
2019-02-20T23:14:09.408Z,16.03
2019-02-20T23:16:38.435Z,15.90
2019-02-20T23:19:07.471Z,17.10
2019-02-20T23:21:36.557Z,12.37
2019-02-20T23:24:05.628Z,13.80
2019-02-20T23:26:34.718Z,16.30
2019-02-20T23:29:03.818Z,18.03
2019-02-20T23:31:32.930Z,15.87
2019-02-20T23:34:02.063Z,20.60
2019-02-20T23:36:31.152Z,10.73
2019-02-20T23:39:00.196Z,14.57
2019-02-20T23:41:29.275Z,16.33
2019-02-20T23:43:58.303Z,15.83
2019-02-20T23:46:27.321Z,14.67
2019-02-20T23:48:56.430Z,20.60
2019-02-20T23:51:25.370Z,14.80
2019-02-20T23:53:54.357Z,16.43
2019-02-20T23:56:23.424Z,18.27
2019-02-20T23:58:52.443Z,19.83
